Time;durP1;ratioP1;P1;durP2;ratioP2;P2;SDS_P1;SDS_P2;PMS_P1;PMS_P2;Temp;Humidity;BMP_temperature;BMP_pressure;BME280_temperature;BME280_humidity;BME280_pressure;Samples;Min_cycle;Max_cycle;Signal;HPM_P1;HPM_P2
2023/07/25 00:00:10;;;;;;;3.58;3.30;;;15.10;99.90;;;15.66;100.00;97003.53;10365724;28;20241;-80
2023/07/25 00:05:15;;;;;;;3.63;3.33;;;14.90;99.90;;;15.71;100.00;97013.16;10364971;28;20601;-80
2023/07/25 00:10:19;;;;;;;3.90;3.60;;;15.00;99.90;;;15.59;100.00;96993.91;10369705;28;20219;-80
2023/07/25 00:15:22;;;;;;;3.60;3.30;;;14.90;99.90;;;15.50;100.00;96997.13;10372088;28;20582;-81
2023/07/25 00:20:27;;;;;;;3.67;3.38;;;14.80;99.90;;;15.52;100.00;96988.59;10363673;28;20222;-82
2023/07/25 00:25:30;;;;;;;3.58;3.28;;;14.80;99.90;;;15.52;100.00;96964.56;10373496;28;20648;-81
2023/07/25 00:30:34;;;;;;;5.80;3.80;;;14.80;99.90;;;15.50;100.00;96964.50;10361511;28;20245;-81
2023/07/25 00:35:38;;;;;;;4.97;3.80;;;14.80;99.90;;;15.58;100.00;96961.25;10370514;28;20237;-81
2023/07/25 00:40:41;;;;;;;5.00;3.67;;;14.80;99.90;;;15.61;100.00;96958.75;10368011;28;20224;-81
2023/07/25 00:45:44;;;;;;;3.75;3.42;;;14.90;99.90;;;15.54;100.00;96948.31;10359860;28;20249;-80
2023/07/25 00:50:49;;;;;;;3.85;3.55;;;14.80;99.90;;;15.51;100.00;96948.25;10373191;28;20222;-80
2023/07/25 00:55:52;;;;;;;4.10;3.70;;;14.80;99.90;;;15.57;100.00;96960.41;10362344;28;20250;-80
2023/07/25 01:01:03;;;;;;;3.65;3.38;;;14.80;99.90;;;15.46;100.00;96965.28;10364746;28;20231;-82
2023/07/25 01:06:13;;;;;;;3.97;3.65;;;14.70;99.90;;;15.44;100.00;96955.78;10366187;28;21052;-81
2023/07/25 01:11:17;;;;;;;4.07;3.78;;;14.70;99.90;;;15.41;100.00;96940.28;10371166;28;20218;-82
2023/07/25 01:16:24;;;;;;;3.10;2.90;;;14.70;99.90;;;15.43;100.00;96934.31;10360825;28;20223;-82
2023/07/25 01:21:30;;;;;;;3.70;3.40;;;14.70;99.90;;;15.26;100.00;96951.94;10365908;28;20664;-83
2023/07/25 01:26:35;;;;;;;3.10;2.88;;;14.60;99.90;;;15.31;100.00;96937.47;10368755;28;20231;-81
2023/07/25 01:31:38;;;;;;;4.10;3.50;;;14.60;99.90;;;15.36;100.00;96926.41;10353531;28;20230;-79
2023/07/25 01:36:41;;;;;;;3.75;3.45;;;14.60;99.90;;;15.41;100.00;96929.97;10364962;28;20227;-80
2023/07/25 01:41:46;;;;;;;3.90;3.20;;;14.60;99.90;;;15.33;100.00;96922.91;10365950;28;20226;-80
2023/07/25 01:46:49;;;;;;;3.60;3.30;;;14.50;99.90;;;15.36;100.00;96916.09;10363355;28;20663;-81
2023/07/25 01:51:52;;;;;;;3.45;3.15;;;14.60;99.90;;;15.39;100.00;96914.47;10363732;28;20222;-82
2023/07/25 01:56:56;;;;;;;3.95;3.65;;;14.60;99.90;;;15.26;100.00;96905.59;10370426;28;20229;-81
2023/07/25 02:02:00;;;;;;;3.67;3.05;;;14.50;99.90;;;15.32;100.00;96892.88;10361818;28;21614;-80
2023/07/25 02:07:03;;;;;;;4.03;3.47;;;14.50;99.90;;;15.32;100.00;96895.44;10365389;28;20309;-82
2023/07/25 02:12:09;;;;;;;3.75;3.45;;;14.50;99.90;;;15.32;100.00;96879.13;10360041;28;20218;-79
2023/07/25 02:17:12;;;;;;;4.15;3.47;;;14.60;99.90;;;15.32;100.00;96868.84;10369801;28;20225;-79
2023/07/25 02:22:15;;;;;;;4.60;3.80;;;14.60;99.90;;;15.28;100.00;96867.91;10358070;28;20237;-80
2023/07/25 02:27:20;;;;;;;3.80;3.50;;;14.60;99.90;;;15.21;100.00;96858.28;10357483;28;20218;-82
2023/07/25 02:32:23;;;;;;;4.10;3.70;;;14.50;99.90;;;15.03;100.00;96852.72;10368813;28;20313;-82
2023/07/25 02:37:26;;;;;;;4.20;3.80;;;14.40;99.90;;;15.04;100.00;96828.72;10360853;28;20245;-82
2023/07/25 02:42:31;;;;;;;4.38;3.97;;;14.40;99.90;;;15.01;100.00;96808.06;10360958;28;20230;-82
2023/07/25 02:47:34;;;;;;;4.20;3.60;;;14.40;99.90;;;15.06;100.00;96811.63;10359688;28;20244;-81
2023/07/25 02:52:37;;;;;;;4.38;4.07;;;14.40;99.90;;;14.99;100.00;96817.44;10366665;28;20297;-81
2023/07/25 02:57:42;;;;;;;4.63;4.22;;;14.30;99.90;;;14.91;100.00;96803.53;10375621;28;20244;-81
2023/07/25 03:02:45;;;;;;;5.28;4.82;;;14.30;99.90;;;14.72;100.00;96792.81;10375661;28;20225;-81
2023/07/25 03:07:48;;;;;;;5.22;4.72;;;14.20;99.90;;;14.69;100.00;96779.91;10371514;28;20642;-81
2023/07/25 03:12:53;;;;;;;4.85;4.38;;;14.10;99.90;;;14.79;100.00;96755.25;10369433;28;20222;-82
2023/07/25 03:17:56;;;;;;;4.70;4.30;;;14.20;99.90;;;14.97;100.00;96763.38;10379685;28;20222;-82
2023/07/25 03:22:59;;;;;;;4.28;3.85;;;14.30;99.90;;;15.06;100.00;96796.19;10373191;28;20818;-82
2023/07/25 03:28:04;;;;;;;4.13;3.80;;;14.30;99.90;;;14.97;100.00;96811.41;10375759;28;20269;-81
2023/07/25 03:33:07;;;;;;;4.30;3.90;;;14.20;99.90;;;14.94;100.00;96822.50;10374821;28;20253;-80
2023/07/25 03:38:11;;;;;;;4.80;4.32;;;14.20;99.90;;;14.82;100.00;96807.66;10373000;28;20211;-80
2023/07/25 03:43:15;;;;;;;4.68;4.25;;;14.20;99.90;;;14.85;100.00;96810.28;10361181;28;20231;-79
2023/07/25 03:48:18;;;;;;;4.90;4.50;;;14.30;99.90;;;15.04;100.00;96815.84;10355693;28;20229;-79
2023/07/25 03:53:21;;;;;;;4.88;4.43;;;14.40;99.90;;;15.22;100.00;96816.28;10357767;28;20222;-80
2023/07/25 03:58:26;;;;;;;4.05;3.65;;;14.50;99.90;;;15.26;100.00;96812.91;10370515;28;20218;-80
2023/07/25 04:03:29;;;;;;;5.25;4.53;;;14.50;99.90;;;15.19;100.00;96821.31;10372723;28;20229;-80
2023/07/25 04:08:32;;;;;;;4.75;4.03;;;14.50;99.90;;;15.27;100.00;96819.78;10368348;28;20261;-80
2023/07/25 04:13:37;;;;;;;5.50;4.47;;;14.60;99.90;;;15.39;100.00;96844.06;10367453;28;20226;-80
2023/07/25 04:18:40;;;;;;;4.90;4.50;;;14.70;99.90;;;15.40;100.00;96830.38;10365118;28;20225;-79
2023/07/25 04:23:44;;;;;;;4.47;4.07;;;14.70;99.90;;;15.70;100.00;96855.94;10374055;28;20218;-80
2023/07/25 04:28:49;;;;;;;4.75;3.80;;;14.80;99.90;;;15.70;100.00;96867.09;10370801;28;20211;-80
2023/07/25 04:33:52;;;;;;;4.38;3.95;;;14.80;99.90;;;15.54;100.00;96847.00;10370404;28;20248;-80
2023/07/25 04:38:55;;;;;;;4.78;4.38;;;14.80;99.90;;;15.52;100.00;96862.41;10368648;28;20226;-81
2023/07/25 04:43:59;;;;;;;6.00;4.40;;;14.90;99.90;;;15.65;100.00;96873.84;10367597;28;20231;-81
2023/07/25 04:49:03;;;;;;;5.13;4.60;;;15.00;99.90;;;15.69;100.00;96865.38;10364188;28;20294;-83
2023/07/25 04:54:06;;;;;;;4.90;4.50;;;15.10;99.90;;;15.91;100.00;96843.50;10366645;28;20625;-81
2023/07/25 04:59:11;;;;;;;4.55;3.85;;;15.20;99.90;;;15.65;100.00;96847.19;10358824;28;20222;-82
2023/07/25 05:04:14;;;;;;;5.15;4.75;;;15.10;99.90;;;15.51;100.00;96841.78;10359992;28;20318;-80
2023/07/25 05:09:18;;;;;;;5.72;4.70;;;15.00;99.90;;;15.47;100.00;96833.09;10360158;28;20297;-81
2023/07/25 05:14:23;;;;;;;5.40;4.90;;;15.00;99.90;;;15.51;100.00;96823.75;10362102;28;20309;-80
2023/07/25 05:19:26;;;;;;;5.30;4.90;;;15.10;99.90;;;15.71;100.00;96831.94;10370553;28;20225;-84
2023/07/25 05:24:30;;;;;;;6.35;5.85;;;15.20;99.90;;;15.92;100.00;96837.50;10365267;28;20309;-80
2023/07/25 05:29:34;;;;;;;6.25;5.75;;;15.30;99.90;;;15.83;100.00;96824.44;10368840;28;20276;-82
2023/07/25 05:34:38;;;;;;;5.57;5.05;;;15.30;99.90;;;15.79;100.00;96817.47;10370162;28;20222;-84
2023/07/25 05:39:41;;;;;;;7.22;5.68;;;15.30;99.90;;;15.95;100.00;96818.66;10368399;28;20232;-85
2023/07/25 05:44:46;;;;;;;5.75;5.25;;;15.50;99.90;;;16.16;100.00;96820.75;10364492;28;20345;-79
2023/07/25 05:49:50;;;;;;;6.65;5.72;;;15.50;99.90;;;16.18;100.00;96819.06;10370350;28;20683;-80
2023/07/25 05:54:53;;;;;;;5.82;5.28;;;15.60;99.90;;;16.12;100.00;96824.97;10371016;28;20237;-80
2023/07/25 05:59:58;;;;;;;6.68;5.97;;;15.50;99.90;;;16.22;100.00;96826.00;10372929;28;20226;-78
2023/07/25 06:05:01;;;;;;;7.53;5.50;;;15.60;99.90;;;16.37;100.00;96836.63;10358638;28;20281;-79
2023/07/25 06:10:06;;;;;;;6.18;5.57;;;15.70;99.90;;;16.42;100.00;96836.69;10346932;28;20246;-78
2023/07/25 06:15:11;;;;;;;6.20;5.60;;;15.70;99.90;;;16.26;100.00;96834.69;10357877;28;20616;-79
2023/07/25 06:20:15;;;;;;;5.60;5.13;;;15.70;99.90;;;16.47;100.00;96853.13;10355534;28;20222;-80
2023/07/25 06:25:19;;;;;;;6.65;6.05;;;15.80;99.90;;;16.50;100.00;96855.75;10367774;28;20284;-79
2023/07/25 06:30:24;;;;;;;6.32;5.72;;;15.90;99.90;;;16.47;100.00;96850.53;10357796;28;20234;-80
2023/07/25 06:35:27;;;;;;;7.03;6.32;;;15.90;99.90;;;16.62;100.00;96848.22;10369205;28;20321;-80
2023/07/25 06:40:30;;;;;;;6.63;6.03;;;16.10;99.90;;;16.97;100.00;96832.47;10364167;28;20229;-79
2023/07/25 06:45:35;;;;;;;6.55;5.85;;;16.30;99.90;;;17.18;100.00;96828.47;10361631;28;20226;-79
2023/07/25 06:50:38;;;;;;;5.53;5.03;;;16.50;99.90;;;17.34;100.00;96825.28;10356074;28;20226;-80
2023/07/25 06:55:41;;;;;;;7.25;5.35;;;16.60;99.90;;;17.49;100.00;96830.63;10360108;28;20589;-80
2023/07/25 07:00:48;;;;;;;5.30;4.80;;;16.70;99.90;;;17.67;100.00;96834.31;10367479;28;20305;-80
2023/07/25 07:05:54;;;;;;;6.95;5.22;;;16.90;99.90;;;17.60;100.00;96811.81;10361363;28;20358;-79
2023/07/25 07:10:57;;;;;;;6.75;6.07;;;16.90;99.90;;;17.60;100.00;96812.69;10364386;28;20645;-80
2023/07/25 07:16:02;;;;;;;6.45;5.85;;;16.90;99.90;;;17.75;100.00;96806.84;10359668;28;20318;-81
2023/07/25 07:21:07;;;;;;;6.18;5.68;;;17.00;99.90;;;17.93;100.00;96808.78;10367700;28;20256;-80
2023/07/25 07:26:11;;;;;;;5.95;5.45;;;17.20;99.90;;;18.11;100.00;96808.13;10362312;28;20285;-78
2023/07/25 07:31:21;;;;;;;6.32;5.65;;;17.40;99.90;;;18.44;100.00;96803.28;10361389;28;20227;-80
2023/07/25 07:36:25;;;;;;;6.13;5.53;;;17.60;99.90;;;18.76;100.00;96801.84;10364682;28;20234;-79
2023/07/25 07:41:28;;;;;;;5.38;4.88;;;17.90;99.90;;;18.83;100.00;96820.03;10365189;28;20305;-80
2023/07/25 07:46:35;;;;;;;5.10;4.70;;;18.00;99.90;;;18.61;100.00;96836.22;10375546;28;20539;-78
2023/07/25 07:51:39;;;;;;;7.43;5.00;;;17.80;99.90;;;18.33;100.00;96828.19;10385398;28;20226;-80
2023/07/25 07:56:42;;;;;;;5.75;5.25;;;17.50;99.90;;;17.82;100.00;96826.75;10385723;28;20246;-79
2023/07/25 08:01:46;;;;;;;7.35;5.10;;;17.20;99.90;;;17.45;100.00;96823.66;10384070;28;20232;-79
2023/07/25 08:06:50;;;;;;;5.45;4.70;;;16.90;99.90;;;17.40;100.00;96817.59;10387311;28;20635;-79
2023/07/25 08:11:53;;;;;;;5.13;4.55;;;16.90;99.90;;;17.39;100.00;96822.72;10392915;28;20296;-81
2023/07/25 08:16:58;;;;;;;6.03;4.93;;;16.80;99.90;;;17.38;100.00;96819.28;10382163;28;20252;-81
2023/07/25 08:22:01;;;;;;;6.30;5.13;;;16.80;99.90;;;17.36;100.00;96838.19;10384109;28;20241;-79
2023/07/25 08:27:05;;;;;;;4.60;4.20;;;16.90;99.90;;;17.42;100.00;96813.31;10380879;28;20718;-80
2023/07/25 08:32:10;;;;;;;6.28;5.68;;;16.90;99.90;;;17.49;100.00;96816.84;10371872;28;20292;-81
2023/07/25 08:37:14;;;;;;;5.50;5.00;;;17.00;99.90;;;17.50;100.00;96806.53;10370450;28;20221;-86
2023/07/25 08:42:20;;;;;;;5.25;4.75;;;17.00;99.90;;;18.08;100.00;96800.31;10364298;28;20287;-81
2023/07/25 08:47:28;;;;;;;4.75;4.25;;;17.70;99.90;;;18.50;100.00;96799.00;10369457;28;20703;-81
2023/07/25 08:52:33;;;;;;;4.45;4.03;;;18.10;99.90;;;19.21;100.00;96801.31;10365112;28;20231;-82
2023/07/25 08:57:37;;;;;;;4.40;4.00;;;18.90;99.90;;;19.84;100.00;96804.22;10368402;28;20224;-82
2023/07/25 09:02:41;;;;;;;4.10;3.70;;;19.70;99.90;;;20.18;100.00;96807.78;10366371;28;20230;-81
2023/07/25 09:07:45;;;;;;;4.65;3.88;;;19.90;99.90;;;20.62;100.00;96800.94;10366502;28;20650;-81
2023/07/25 09:12:48;;;;;;;4.25;3.85;;;20.40;99.90;;;21.01;99.04;96802.66;10359015;28;20222;-82
2023/07/25 09:17:54;;;;;;;4.00;3.20;;;20.60;99.90;;;20.98;93.21;96797.47;10361317;28;20254;-82
2023/07/25 09:22:58;;;;;;;3.22;2.83;;;20.50;99.90;;;21.13;96.02;96796.59;10366984;28;20288;-81
2023/07/25 09:28:02;;;;;;;3.40;3.00;;;20.70;99.90;;;21.00;95.16;96790.53;10367478;28;20229;-81
2023/07/25 09:33:07;;;;;;;3.45;3.15;;;20.50;99.90;;;20.76;95.21;96783.63;10363059;28;20227;-81
2023/07/25 09:38:11;;;;;;;3.45;3.15;;;20.20;99.90;;;20.36;98.96;96775.78;10366985;28;20219;-81
2023/07/25 09:43:23;;;;;;;3.53;3.22;;;19.80;99.90;;;19.93;98.20;96772.25;10361002;28;20313;-81
2023/07/25 09:48:27;;;;;;;4.15;3.42;;;19.30;99.90;;;19.94;100.00;96776.56;10368526;28;20297;-80
2023/07/25 09:53:31;;;;;;;6.78;3.53;;;19.20;99.90;;;19.98;100.00;96781.78;10361963;28;20230;-81
2023/07/25 09:58:34;;;;;;;4.07;3.70;;;19.30;99.90;;;20.19;100.00;96778.38;10362805;28;21015;-78
2023/07/25 10:03:45;;;;;;;4.03;3.63;;;19.40;99.90;;;20.15;99.83;96766.25;10372613;28;20246;-80
2023/07/25 10:08:48;;;;;;;4.43;3.92;;;19.60;99.90;;;20.62;100.00;96759.41;10379042;28;20230;-81
2023/07/25 10:13:52;;;;;;;3.90;3.40;;;20.20;99.90;;;20.99;99.55;96765.41;10370760;28;20269;-80
2023/07/25 10:19:01;;;;;;;3.05;2.70;;;20.60;99.90;;;20.91;92.75;96756.75;10371293;28;20884;-80
2023/07/25 10:24:05;;;;;;;4.18;2.88;;;20.50;99.90;;;21.17;91.31;96758.44;10369912;28;20305;-79
2023/07/25 10:29:41;;;;;;;2.80;2.53;;;21.00;99.90;;;21.48;78.03;96765.31;10360611;28;20232;-79
2023/07/25 10:34:48;;;;;;;2.92;2.40;;;21.40;99.90;;;21.95;78.99;96774.66;10361341;28;20224;-79
2023/07/25 10:40:12;;;;;;;2.50;2.30;;;21.80;99.90;;;22.14;70.77;96779.75;10358213;28;20222;-80
2023/07/25 10:45:49;;;;;;;2.47;2.15;;;22.00;99.90;;;22.25;71.28;96770.16;10356540;28;20222;-79
2023/07/25 10:50:54;;;;;;;1.83;1.70;;;21.90;99.90;;;22.35;70.20;96770.94;10362454;28;20211;-79
2023/07/25 10:56:14;;;;;;;2.05;1.58;;;21.80;99.90;;;22.38;71.55;96755.34;10370008;28;20666;-79
2023/07/25 11:01:37;;;;;;;2.80;1.88;;;21.70;99.90;;;22.74;68.83;96754.16;10361341;28;20300;-80
2023/07/25 11:06:42;;;;;;;2.20;2.00;;;22.10;99.90;;;22.86;66.00;96754.06;10355250;28;20322;-80
2023/07/25 11:11:48;;;;;;;2.17;1.98;;;22.20;99.90;;;23.04;67.16;96740.00;10362807;28;20222;-81
2023/07/25 11:16:53;;;;;;;2.38;1.80;;;22.30;99.90;;;23.15;64.33;96730.34;10368765;28;20222;-82
2023/07/25 11:21:58;;;;;;;2.05;1.90;;;22.50;99.90;;;23.37;63.78;96722.25;10394069;28;20260;-81
2023/07/25 11:27:03;;;;;;;2.45;1.90;;;22.90;99.90;;;23.83;60.01;96722.56;10379582;28;20609;-81
2023/07/25 11:32:08;;;;;;;1.92;1.70;;;23.40;99.90;;;23.97;58.11;96726.72;10373937;28;20804;-80
2023/07/25 11:37:13;;;;;;;2.10;1.90;;;23.30;99.90;;;23.81;58.86;96723.50;10369825;28;20214;-80
2023/07/25 11:42:17;;;;;;;1.88;1.77;;;23.10;99.90;;;23.85;60.01;96733.00;10367083;28;20214;-81
2023/07/25 11:47:20;;;;;;;1.80;1.70;;;23.10;99.90;;;23.97;61.28;96730.19;10372068;28;20226;-81
2023/07/25 11:52:25;;;;;;;2.30;1.95;;;23.10;99.90;;;23.86;70.74;96733.84;10366993;28;20309;-81
2023/07/25 11:57:28;;;;;;;1.63;1.30;;;22.80;99.90;;;23.28;58.91;96738.88;10366338;28;20289;-82
2023/07/25 12:02:36;;;;;;;1.42;1.30;;;22.50;99.90;;;23.16;58.34;96741.63;10369806;28;20301;-80
2023/07/25 12:07:51;;;;;;;1.50;1.25;;;22.30;99.90;;;23.07;57.03;96736.50;10361556;28;20231;-79
2023/07/25 12:12:55;;;;;;;1.50;1.40;;;22.40;99.90;;;22.87;57.21;96729.72;10361896;28;20227;-81
2023/07/25 12:17:59;;;;;;;1.90;1.48;;;22.40;99.90;;;23.25;59.50;96731.09;10372818;28;20640;-80
2023/07/25 12:23:07;;;;;;;1.42;1.33;;;22.70;99.90;;;23.45;56.18;96701.31;10366462;28;20284;-80
2023/07/25 12:28:11;;;;;;;1.60;1.50;;;23.10;99.90;;;23.34;55.82;96691.00;10371526;28;20229;-81
2023/07/25 12:33:14;;;;;;;1.85;1.40;;;22.90;99.90;;;23.62;56.32;96694.13;10365848;28;20620;-80
2023/07/25 12:38:19;;;;;;;1.83;1.55;;;23.10;99.90;;;23.64;54.42;96697.59;10364090;28;20240;-79
2023/07/25 12:43:22;;;;;;;1.70;1.40;;;23.30;99.60;;;23.65;54.78;96763.66;10362673;28;20229;-79
2023/07/25 12:48:26;;;;;;;2.30;1.45;;;23.10;99.80;;;23.14;57.64;96785.94;10363882;28;20242;-80
2023/07/25 12:53:30;;;;;;;1.20;1.10;;;22.40;99.90;;;22.91;58.71;96804.38;10364869;28;20317;-80
2023/07/25 12:58:33;;;;;;;1.33;1.23;;;22.00;99.90;;;22.20;59.83;96803.16;10367381;28;20322;-80
2023/07/25 13:03:40;;;;;;;1.58;1.20;;;21.10;99.90;;;21.69;64.15;96816.41;10369565;28;20234;-80
2023/07/25 13:08:45;;;;;;;1.77;1.50;;;20.70;99.90;;;20.24;79.75;96828.56;10365091;28;20762;-81
2023/07/25 13:13:48;;;;;;;2.05;1.60;;;19.70;99.90;;;19.00;89.54;96829.63;10367058;28;20242;-82
2023/07/25 13:18:52;;;;;;;4.38;3.97;;;18.60;99.90;;;18.71;98.91;96812.13;10369558;28;20226;-82
2023/07/25 13:23:56;;;;;;;1.75;1.65;;;18.40;99.90;;;18.73;100.00;96814.75;10371030;28;20746;-84
2023/07/25 13:29:00;;;;;;;1.58;1.48;;;18.50;99.90;;;18.89;100.00;96820.09;10360616;28;20242;-82
2023/07/25 13:34:03;;;;;;;1.30;1.30;;;18.70;99.90;;;19.07;100.00;96834.88;10363832;28;20234;-82
2023/07/25 13:39:08;;;;;;;1.50;1.40;;;18.90;99.90;;;19.11;100.00;96840.94;10362989;28;20747;-82
2023/07/25 13:44:12;;;;;;;1.40;1.30;;;18.90;99.90;;;19.06;92.02;96860.78;10368023;28;20250;-83
2023/07/25 13:49:15;;;;;;;1.30;1.10;;;18.60;99.90;;;18.81;92.44;96855.41;10361004;28;20317;-82
2023/07/25 13:54:20;;;;;;;1.17;1.17;;;18.40;99.90;;;18.85;92.32;96859.75;10362451;28;20810;-82
2023/07/25 13:59:23;;;;;;;1.17;1.15;;;18.50;99.90;;;19.02;91.15;96864.19;10370011;28;20219;-82
2023/07/25 14:04:28;;;;;;;1.15;1.15;;;18.60;99.90;;;19.16;89.35;96872.06;10361193;28;20250;-81
2023/07/25 14:09:33;;;;;;;1.48;1.20;;;18.70;99.90;;;19.15;87.02;96884.16;10362223;28;20238;-82
2023/07/25 14:14:37;;;;;;;1.20;1.20;;;18.70;99.90;;;19.15;85.24;96884.16;10363026;28;20226;-81
2023/07/25 14:19:40;;;;;;;1.30;1.20;;;18.60;99.90;;;19.05;83.70;96887.53;10359034;28;20227;-80
2023/07/25 14:24:45;;;;;;;1.38;1.27;;;18.50;99.90;;;18.95;82.50;96915.09;10369624;28;20221;-81
2023/07/25 14:29:48;;;;;;;1.08;1.08;;;18.40;99.90;;;18.96;83.85;96913.34;10369035;28;20301;-82
2023/07/25 14:34:52;;;;;;;1.70;1.60;;;18.40;99.90;;;19.08;81.80;96918.63;10364578;28;20236;-82
2023/07/25 14:39:56;;;;;;;1.17;1.17;;;18.40;99.90;;;18.95;84.55;96915.09;10364435;28;20234;-83
2023/07/25 14:44:59;;;;;;;2.00;1.33;;;18.40;99.90;;;19.01;84.05;96906.50;10353214;28;20321;-81
2023/07/25 14:50:03;;;;;;;1.83;1.05;;;18.40;99.90;;;19.01;85.73;96890.97;10363807;28;20224;-81
2023/07/25 14:55:09;;;;;;;1.20;1.20;;;18.40;99.90;;;18.99;85.65;96890.06;10359159;28;20256;-80
2023/07/25 15:00:13;;;;;;;1.35;1.17;;;18.40;99.90;;;19.25;84.52;96896.31;10364646;28;20226;-81
2023/07/25 15:05:17;;;;;;;0.93;0.93;;;18.60;99.90;;;19.54;80.74;96913.78;10365065;28;20230;-82
2023/07/25 15:10:22;;;;;;;1.33;1.20;;;18.80;99.90;;;19.74;80.70;96914.84;10368154;28;20330;-81
2023/07/25 15:15:25;;;;;;;1.10;1.10;;;19.00;99.90;;;20.06;76.26;96908.94;10365808;28;20222;-80
2023/07/25 15:20:29;;;;;;;1.10;1.00;;;19.40;99.90;;;19.92;78.32;96906.28;10371642;28;20219;-80
2023/07/25 15:25:34;;;;;;;1.00;1.00;;;19.20;99.90;;;19.66;76.27;96898.38;10382286;28;20601;-81
2023/07/25 15:30:37;;;;;;;1.10;1.10;;;18.90;99.90;;;19.43;78.21;96897.28;10368033;28;20232;-80
2023/07/25 15:35:41;;;;;;;1.58;1.48;;;18.70;99.90;;;19.67;74.79;96897.50;10366149;28;20261;-80
2023/07/25 15:40:45;;;;;;;1.10;1.10;;;18.80;99.90;;;19.51;77.03;96900.81;10373360;28;20226;-80
2023/07/25 15:45:49;;;;;;;1.00;1.00;;;18.80;99.90;;;19.83;75.86;96897.56;10364199;28;20249;-80
2023/07/25 15:50:52;;;;;;;1.10;1.10;;;19.00;99.90;;;20.24;72.08;96898.63;10369265;28;20573;-80
2023/07/25 15:55:57;;;;;;;1.17;1.08;;;19.40;99.90;;;19.97;73.70;96903.69;10361768;28;20230;-79
2023/07/25 16:01:01;;;;;;;1.58;1.48;;;19.10;99.90;;;19.84;75.03;96917.47;10358161;28;20309;-82
2023/07/25 16:06:04;;;;;;;1.40;1.25;;;19.10;99.90;;;20.22;72.79;96920.22;10382228;28;20232;-81
2023/07/25 16:11:09;;;;;;;1.27;1.13;;;19.30;99.90;;;20.27;70.58;96915.06;10376885;28;20249;-81
2023/07/25 16:16:12;;;;;;;1.48;1.38;;;19.20;99.90;;;19.94;73.15;96909.72;10368035;28;20231;-82
2023/07/25 16:21:15;;;;;;;1.30;1.20;;;19.00;99.90;;;19.71;74.43;96913.94;10363463;28;20994;-81
2023/07/25 16:26:20;;;;;;;1.40;1.30;;;18.80;99.90;;;19.49;76.86;96910.31;10355925;28;20222;-81
2023/07/25 16:31:23;;;;;;;1.48;1.38;;;18.50;99.90;;;19.58;76.31;96925.94;10365456;28;20245;-79
2023/07/25 16:36:35;;;;;;;1.65;1.55;;;18.50;99.90;;;19.58;77.10;96925.94;10365570;28;20227;-81
2023/07/25 16:41:40;;;;;;;2.70;1.50;;;18.50;99.90;;;19.34;82.36;96924.91;10372400;28;20234;-82
2023/07/25 16:46:43;;;;;;;2.08;1.88;;;18.30;99.90;;;18.61;87.46;96931.97;10364868;28;20234;-82
2023/07/25 16:51:46;;;;;;;1.90;1.80;;;18.00;99.90;;;18.36;93.52;96941.19;10355271;28;20226;-82
2023/07/25 16:56:51;;;;;;;1.88;1.77;;;17.80;99.90;;;18.12;96.04;96952.13;10355836;28;20305;-82
2023/07/25 17:01:54;;;;;;;2.05;1.95;;;17.60;99.90;;;18.00;97.34;96943.34;10354288;28;20306;-83
2023/07/25 17:06:57;;;;;;;1.75;1.65;;;17.50;99.90;;;17.98;98.24;96968.31;10358363;28;20226;-82
2023/07/25 17:12:02;;;;;;;2.17;1.98;;;17.40;99.90;;;17.93;98.00;96964.78;10359975;28;20290;-81
2023/07/25 17:17:06;;;;;;;2.42;2.20;;;17.30;99.90;;;17.94;98.63;96969.13;10360697;28;20222;-80
2023/07/25 17:22:10;;;;;;;2.30;2.10;;;17.30;99.90;;;17.92;97.88;96969.97;10359934;28;20309;-80
2023/07/25 17:27:14;;;;;;;2.40;2.30;;;17.30;99.90;;;17.91;99.23;96974.25;10363485;28;20679;-80
2023/07/25 17:32:21;;;;;;;2.28;2.17;;;17.30;99.90;;;18.00;98.56;96978.69;10351488;28;20254;-80
2023/07/25 17:37:24;;;;;;;2.50;2.30;;;17.30;99.90;;;17.89;98.97;96988.88;10354179;28;20251;-80
2023/07/25 17:42:28;;;;;;;4.75;2.55;;;17.30;99.90;;;17.40;98.88;97016.53;10359778;28;20241;-82
2023/07/25 17:47:33;;;;;;;2.63;2.42;;;17.00;99.90;;;16.69;100.00;97039.28;10352500;28;20332;-81
2023/07/25 17:52:36;;;;;;;2.25;2.15;;;16.40;99.90;;;16.68;100.00;97053.88;10355545;28;20230;-81
2023/07/25 17:57:41;;;;;;;2.40;2.20;;;16.30;99.90;;;16.59;100.00;97054.56;10350839;28;20230;-82
2023/07/25 18:02:44;;;;;;;2.65;2.40;;;16.20;99.90;;;16.49;100.00;97047.50;10360954;28;20759;-81
2023/07/25 18:07:48;;;;;;;2.80;2.60;;;16.10;99.90;;;16.38;100.00;97056.72;10360376;28;20254;-79
2023/07/25 18:12:53;;;;;;;2.80;2.60;;;16.00;99.90;;;16.29;100.00;97059.09;10364321;28;20308;-80
2023/07/25 18:17:56;;;;;;;3.28;3.03;;;15.90;99.90;;;16.39;100.00;97066.19;10366047;28;20226;-78
2023/07/25 18:22:59;;;;;;;3.38;3.17;;;15.90;99.90;;;16.52;100.00;97075.94;10361274;28;20241;-78
2023/07/25 18:28:04;;;;;;;4.07;3.78;;;15.90;99.90;;;16.34;100.00;97098.72;10362293;28;20244;-78
2023/07/25 18:33:07;;;;;;;3.85;3.55;;;15.80;99.90;;;16.33;100.00;97117.63;10362289;28;20269;-77
2023/07/25 18:38:11;;;;;;;4.32;4.03;;;15.70;99.90;;;16.17;100.00;97127.63;10351676;28;20229;-78
2023/07/25 18:43:19;;;;;;;4.30;4.00;;;15.60;99.90;;;16.05;100.00;97135.03;10346071;28;20238;-77
2023/07/25 18:48:22;;;;;;;4.55;4.15;;;15.50;99.90;;;16.04;100.00;97151.34;10337279;28;20278;-77
2023/07/25 18:53:26;;;;;;;4.80;3.75;;;15.50;99.90;;;15.80;100.00;97161.06;10355330;28;20230;-78
2023/07/25 18:58:30;;;;;;;4.70;4.40;;;15.30;99.90;;;15.67;100.00;97168.44;10345424;28;20245;-77
2023/07/25 19:03:33;;;;;;;5.45;4.72;;;15.20;99.90;;;15.58;100.00;97175.94;10350402;28;20236;-77
2023/07/25 19:08:37;;;;;;;4.95;4.50;;;15.10;99.90;;;15.43;100.00;97193.56;10364882;28;20659;-77
2023/07/25 19:13:41;;;;;;;5.20;4.70;;;15.10;99.90;;;15.35;100.00;97202.78;10341385;28;20705;-76
2023/07/25 19:18:44;;;;;;;5.15;4.63;;;15.00;99.90;;;15.47;100.00;97205.69;10333447;28;20222;-77
2023/07/25 19:23:48;;;;;;;4.75;4.40;;;15.00;99.90;;;15.54;100.00;97223.06;10340538;28;20224;-77
2023/07/25 19:28:52;;;;;;;5.18;4.75;;;15.00;99.90;;;15.46;100.00;97237.44;10339545;28;20733;-78
2023/07/25 19:33:56;;;;;;;5.22;4.72;;;14.90;99.90;;;15.39;100.00;97249.25;10351584;28;20241;-78
2023/07/25 19:39:00;;;;;;;5.72;5.22;;;14.90;99.90;;;15.33;100.00;97256.78;10361125;28;20361;-79
2023/07/25 19:44:05;;;;;;;6.57;5.47;;;14.90;99.90;;;15.32;100.00;97260.22;10363770;28;20689;-78
2023/07/25 19:49:08;;;;;;;6.15;5.25;;;14.90;99.90;;;15.30;100.00;97274.72;10370846;28;20776;-78
2023/07/25 19:54:13;;;;;;;6.05;5.43;;;14.70;99.90;;;15.16;100.00;97279.47;10378773;28;20223;-78
2023/07/25 19:59:18;;;;;;;5.95;5.35;;;14.70;99.90;;;15.10;100.00;97284.44;10372276;28;20249;-78
2023/07/25 20:04:21;;;;;;;5.82;5.38;;;14.60;99.90;;;14.98;100.00;97296.94;10376603;28;20773;-79
2023/07/25 20:09:25;;;;;;;6.13;5.57;;;14.60;99.90;;;15.05;100.00;97293.72;10387932;28;20288;-78
2023/07/25 20:14:29;;;;;;;6.40;5.80;;;14.60;99.90;;;15.06;100.00;97300.63;10379304;28;20253;-77
2023/07/25 20:19:32;;;;;;;7.07;6.32;;;14.60;99.90;;;15.05;100.00;97304.91;10375595;28;20250;-79
2023/07/25 20:24:36;;;;;;;6.68;6.07;;;14.60;99.90;;;15.01;100.00;97312.47;10380064;28;20222;-79
2023/07/25 20:29:41;;;;;;;7.03;6.43;;;14.60;99.90;;;14.97;100.00;97323.53;10381720;28;20254;-79
2023/07/25 20:34:44;;;;;;;7.45;6.75;;;14.60;99.90;;;15.06;100.00;97331.53;10370846;28;20230;-78
2023/07/25 20:39:47;;;;;;;7.10;6.43;;;14.60;99.90;;;15.00;100.00;97333.91;10384882;28;20269;-78
2023/07/25 20:44:52;;;;;;;7.57;6.95;;;14.50;99.90;;;14.97;100.00;97333.81;10373506;28;20226;-79
2023/07/25 20:49:55;;;;;;;8.52;7.72;;;14.50;99.90;;;14.90;100.00;97343.03;10373029;28;20230;-79
2023/07/25 20:54:59;;;;;;;7.85;7.05;;;14.50;99.90;;;14.96;100.00;97352.63;10371704;28;20231;-81